Taunton 2W

41° 53' 56"N, 71° 08' 19"W, Elevation 50 ft.
Eastern Time

Hourly observations for the last 72 hours

Date Time Temperature (°F) Humi-
dity

(%)
Wind
(mph)
Pressure Rain (in) Sun
(W/m2)
UV ET
(in)
Air Dew 6 Hour 1 Hr 3 Hr 6 Hr Day
Alt
(in)
Sea
Level

(mb)
Max Min
24 09:00 56.1 42.8 61 SW 3 G 9 30.16 1021.5 0.00 624 2.2 0.008
24 08:00 49.7 42.8 49.7 33.5 77 WSW 1 G 3 30.16 1021.3 0.00 381 0.9 0.003
24 07:00 40.0 39.0 96 SSE 1 G 3 30.15 1020.9 0.00 179 0.0 0.002
24 06:00 33.8 32.5 95 Calm 30.13 1020.4 0.00 9 0.0 0.002
24 05:00 35.5 34.2 95 SSE 0 G 2 30.12 1019.9 0.00 0 0.0 0.002
24 04:00 36.4 34.6 93 Calm 30.10 1019.5 0.00 0 0.0 0.002
24 03:00 38.6 36.2 91 Calm 30.10 1019.4 0.00 0 0.0 0.002
24 02:00 42.4 38.2 48.6 42.4 85 SSW 2 G 3 30.11 1019.8 0.00 0 0.0 0.001
24 01:00 43.6 39.1 84 SSW 3 G 8 30.11 1019.7 0.00 0 0.0 0.000
24 00:00 43.7 39.2 84 S 2 G 4 30.11 1019.6 0.00 0 0.0 0.175
23 23:00 44.7 39.2 81 S 2 G 5 30.12 1019.9 0.00 0 0.0 0.174
23 22:00 46.2 40.1 79 S 5 G 11 30.11 1019.8 0.00 0 0.0 0.173
23 21:00 47.0 39.8 76 S 3 G 8 30.11 1019.6 0.00 0 0.0 0.172
23 20:00 48.6 40.0 64.6 48.6 72 S 9 G 16 30.08 1018.6 0.00 0 0.0 0.170
23 19:00 51.7 40.3 65 S 9 G 17 30.07 1018.4 0.00 39 0.0 0.165
23 18:00 54.3 41.1 61 S 10 G 17 30.05 1017.8 0.00 237 0.0 0.155
23 17:00 58.2 42.6 56 SSW 8 G 18 30.03 1017.1 0.00 450 1.3 0.140
23 16:00 63.8 43.2 47 S 4 G 12 30.02 1016.6 0.00 624 2.7 0.122
23 15:00 63.7 45.8 52 S 8 G 15 30.03 1017.0 0.00 770 4.2 0.102
23 14:00 61.8 44.0 62.1 46.0 52 SSE 4 G 9 30.05 1017.7 0.00 877 5.4 0.082
23 13:00 59.5 42.9 54 NNE 5 G 7 30.06 1017.9 0.00 928 6.3 0.062
23 12:00 56.7 42.1 58 NW 2 G 4 30.07 1018.5 0.00 933 6.1 0.044
23 11:00 54.5 40.5 59 N 5 G 10 30.08 1018.6 0.00 858 4.8 0.028
23 10:00 52.7 43.6 71 N 4 G 11 30.08 1018.6 0.00 738 3.4 0.015
23 09:00 50.4 42.8 75 N 7 G 17 30.07 1018.3 0.00 575 2.0 0.005
23 08:00 46.0 41.7 46.0 33.7 85 NNW 4 G 11 30.06 1017.9 0.00 374 0.8 0.001
23 07:00 35.7 34.9 97 NW 0 G 4 30.04 1017.3 0.00 156 0.0 0.000
23 06:00 34.2 33.4 97 Calm 30.01 1016.4 0.00 5 0.0 0.000
23 05:00 35.2 34.4 97 WNW 0 G 4 29.99 1015.7 0.00 0 0.0 0.000
23 04:00 35.7 34.9 97 WNW 2 G 3 29.99 1015.4 0.00 0 0.0 0.000
23 03:00 37.9 36.9 96 WNW 0 G 2 29.97 1015.1 0.00 0 0.0 0.000
23 02:00 41.5 40.4 44.7 41.5 96 Calm 29.98 1015.3 0.00 0 0.0 0.000
23 01:00 42.6 41.5 96 Calm 29.98 1015.3 0.00 0 0.0 0.000
23 00:00 42.4 41.3 96 Calm 29.97 1014.8 0.11 0 0.0 0.019
22 23:00 42.7 41.1 94 NNE 1 G 4 29.95 1014.3 0.11 0 0.0 0.019
22 22:00 43.4 41.8 94 NNE 0 G 3 29.96 1014.6 0.11 0 0.0 0.019
22 21:00 44.3 42.4 93 NNE 2 G 6 29.95 1014.3 0.11 0 0.0 0.019
22 20:00 44.6 42.7 46.2 44.6 93 NNW 2 G 7 29.93 1013.6 0.01 0.03 0.11 0 0.0 0.019
22 19:00 45.1 43.2 93 N 2 G 8 29.92 1013.1 0.11 16 0.0 0.018
22 18:00 45.2 43.3 93 NNW 7 G 12 29.92 1013.3 0.01 0.11 69 0.0 0.017
22 17:00 45.4 43.2 92 NNW 4 G 10 29.92 1013.1 0.02 0.10 35 0.0 0.016
22 16:00 45.4 43.5 93 NNW 7 G 13 29.90 1012.6 0.10 60 0.0 0.014
22 15:00 46.1 43.9 92 NNE 5 G 8 29.88 1012.0 0.02 0.10 77 0.6 0.012
22 14:00 45.6 43.7 45.8 43.9 93 N 5 G 9 29.90 1012.6 0.02 0.05 0.05 0.08 135 1.3 0.010
22 13:00 45.3 43.7 94 N 4 G 11 29.92 1013.2 0.03 0.06 200 1.8 0.008
22 12:00 45.2 43.3 93 N 5 G 10 29.92 1013.3 0.03 113 0.9 0.006
22 11:00 44.9 43.3 94 NNW 5 G 16 29.92 1013.4 0.03 107 0.8 0.004
22 10:00 44.7 43.4 95 N 9 G 14 29.91 1013.0 0.03 111 0.7 0.002
22 09:00 44.5 43.4 96 N 7 G 14 29.92 1013.3 0.03 109 0.5 0.001
22 08:00 43.9 42.8 45.4 43.5 96 N 4 G 13 29.92 1013.2 0.02 0.03 39 0.0 0.000
22 07:00 43.5 42.4 96 N 5 G 11 29.92 1013.2 0.03 14 0.0 0.000
22 06:00 43.8 42.7 96 N 4 G 11 29.91 1012.7 0.03 0 0.0 0.000
22 05:00 44.0 42.9 96 N 6 G 11 29.91 1013.0 0.01 0.02 0.03 0 0.0 0.000
22 04:00 44.2 43.4 97 N 7 G 12 29.92 1013.2 0.02 0 0.0 0.000
22 03:00 44.9 44.1 97 N 3 G 9 29.92 1013.1 0.01 0.02 0 0.0 0.000
22 02:00 45.4 44.6 47.2 45.3 97 N 3 G 9 29.93 1013.5 0.02 0.05 0.01 0 0.0 0.000
22 01:00 45.6 44.8 97 NNE 3 G 6 29.94 1013.9 0.01 0.01 0 0.0 0.000
22 00:00 46.2 45.4 97 N 3 G 5 29.95 1014.2 0.01 0.44 0 0.0 0.015
21 23:00 46.5 45.7 97 NNW 0 G 4 29.96 1014.7 0.01 0.03 0.45 0 0.0 0.015
21 22:00 47.0 46.2 97 E 2 G 3 29.98 1015.1 0.44 0 0.0 0.015
21 21:00 47.0 45.9 96 E 3 G 5 29.97 1014.8 0.02 0.44 0 0.0 0.015
21 20:00 47.2 46.1 47.9 47.1 96 NNE 2 G 6 29.97 1014.9 0.03 0.07 0.42 0 0.0 0.015
21 19:00 47.2 46.1 96 E 4 G 10 29.93 1013.7 0.02 0.42 14 0.0 0.015
21 18:00 47.5 46.4 96 E 2 G 5 29.97 1015.0 0.01 0.40 19 0.0 0.014
21 17:00 47.6 46.5 96 E 3 G 13 29.96 1014.6 0.03 0.04 0.39 47 0.0 0.013
21 16:00 47.6 46.2 95 E 4 G 10 29.96 1014.7 0.36 65 0.0 0.012
21 15:00 47.7 46.1 94 ESE 8 G 13 29.98 1015.3 0.01 0.36 74 0.6 0.010
21 14:00 47.6 46.2 47.6 45.3 95 E 4 G 12 30.01 1016.2 0.02 0.05 0.20 0.35 142 1.2 0.008
21 13:00 46.9 45.5 95 E 4 G 9 30.02 1016.7 0.03 0.33 104 0.9 0.006
21 12:00 46.4 45.0 95 E 8 G 14 30.02 1016.7 0.32 93 0.8 0.004
21 11:00 46.6 45.2 95 E 6 G 10 30.04 1017.2 0.02 0.15 0.30 128 1.1 0.002
21 10:00 46.2 44.8 95 ENE 4 G 9 30.06 1017.8 0.06 0.28 84 0.6 0.001

Data generated by WxSolution Version 1.9.0.7, Build 2017.01.18.